Time;durP1;ratioP1;P1;durP2;ratioP2;P2;SDS_P1;SDS_P2;PMS_P1;PMS_P2;Temp;Humidity;BMP_temperature;BMP_pressure;BME280_temperature;BME280_humidity;BME280_pressure;Samples;Min_cycle;Max_cycle;Signal;HPM_P1;HPM_P2
2022/10/17 00:00:54;;;;;;;8.27;7.15;;;;;;;15.09;100.00;101488.22;5255537;28;20021;-77
2022/10/17 00:03:26;;;;;;;10.02;7.05;;;;;;;15.09;100.00;101487.38;5257369;28;20111;-77
2022/10/17 00:05:57;;;;;;;8.02;7.20;;;;;;;15.07;100.00;101478.75;5253993;28;20116;-77
2022/10/17 00:08:28;;;;;;;7.57;6.88;;;;;;;15.15;100.00;101478.03;5256460;28;20037;-76
2022/10/17 00:11:04;;;;;;;8.23;6.93;;;;;;;15.21;100.00;101485.41;5238791;28;20029;-77
2022/10/17 00:13:35;;;;;;;7.43;6.72;;;;;;;15.21;100.00;101488.03;5258322;28;20394;-77
2022/10/17 00:16:07;;;;;;;8.65;7.05;;;;;;;15.19;100.00;101482.06;5257984;28;20016;-77
2022/10/17 00:18:39;;;;;;;8.88;7.38;;;;;;;15.25;100.00;101478.84;5257485;28;20167;-78
2022/10/17 00:21:15;;;;;;;9.27;7.45;;;;;;;15.32;100.00;101478.13;5258089;28;20408;-78
2022/10/17 00:23:47;;;;;;;7.60;6.85;;;;;;;15.23;100.00;101478.19;5257607;28;20032;-78
2022/10/17 00:26:19;;;;;;;8.45;7.55;;;;;;;15.25;100.00;101469.13;5254393;28;20388;-77
2022/10/17 00:28:51;;;;;;;8.60;7.03;;;;;;;15.24;100.00;101464.81;5256634;28;20482;-77
2022/10/17 00:31:23;;;;;;;7.90;7.05;;;;;;;15.19;100.00;101472.34;5257374;28;20086;-77
2022/10/17 00:33:55;;;;;;;8.50;7.53;;;;;;;15.22;100.00;101466.75;5258470;28;20460;-78
2022/10/17 00:36:26;;;;;;;9.07;7.32;;;;;;;15.14;100.00;101464.00;5257773;28;20303;-77
2022/10/17 00:38:58;;;;;;;8.18;7.18;;;;;;;15.13;100.00;101462.38;5254055;28;20107;-78
2022/10/17 00:41:32;;;;;;;9.25;7.63;;;;;;;15.19;100.00;101463.56;5257056;28;20100;-77
2022/10/17 00:44:23;;;;;;;8.00;7.20;;;;;;;15.18;100.00;101470.66;5257002;28;20025;-77
2022/10/17 00:47:01;;;;;;;8.43;7.63;;;;;;;15.31;100.00;101465.06;5258699;28;20028;-77
2022/10/17 00:49:35;;;;;;;9.20;7.25;;;;;;;15.19;100.00;101460.94;5256348;28;20025;-78
2022/10/17 00:52:16;;;;;;;;;;;;;;;15.80;100.00;101457.75;5258184;28;20031;-77
2022/10/17 00:54:56;;;;;;;10.73;8.35;;;;;;;15.41;100.00;101465.00;5258432;28;20007;-77
2022/10/17 00:57:30;;;;;;;9.90;8.23;;;;;;;15.28;100.00;101466.19;5257261;28;20083;-77
2022/10/17 01:00:05;;;;;;;10.88;8.68;;;;;;;15.32;100.00;101462.28;5256936;28;20032;-77
2022/10/17 01:02:37;;;;;;;8.82;7.97;;;;;;;15.31;100.00;101460.63;5257313;28;20033;-76
2022/10/17 01:05:09;;;;;;;9.30;8.35;;;;;;;15.37;100.00;101468.94;5257232;28;20485;-77
2022/10/17 01:07:42;;;;;;;8.73;7.93;;;;;;;15.40;100.00;101463.38;5257855;28;20033;-76
2022/10/17 01:10:14;;;;;;;11.73;8.93;;;;;;;15.45;100.00;101463.75;5256909;28;20064;-77
2022/10/17 01:13:12;;;;;;;10.48;9.38;;;;;;;15.69;100.00;101450.88;5257687;28;20045;-77
2022/10/17 01:15:56;;;;;;;10.32;9.23;;;;;;;15.58;100.00;101461.59;5256517;28;20029;-77
2022/10/17 01:18:44;;;;;;;13.45;8.48;;;;;;;15.62;100.00;101449.75;5257192;28;20035;-77
2022/10/17 01:21:31;;;;;;;9.73;8.75;;;;;;;15.66;100.00;101458.25;5256073;28;20036;-76
2022/10/17 01:24:40;;;;;;;10.77;9.30;;;;;;;15.81;100.00;101459.41;5257393;28;20021;-76
2022/10/17 01:27:33;;;;;;;9.98;8.70;;;;;;;15.68;100.00;101465.06;5174536;28;20097;-78
2022/10/17 01:30:44;;;;;;;10.73;8.50;;;;;;;15.80;100.00;101455.13;5255939;28;20037;-78
2022/10/17 01:33:45;;;;;;;9.90;8.43;;;;;;;15.68;100.00;101453.63;5256755;28;20060;-78
2022/10/17 01:36:25;;;;;;;11.10;9.07;;;;;;;15.71;100.00;101448.06;5234141;28;20082;-77
2022/10/17 01:39:06;;;;;;;10.20;9.20;;;;;;;15.76;100.00;101454.56;5256294;28;20040;-77
2022/10/17 01:41:37;;;;;;;9.32;8.38;;;;;;;15.64;100.00;101450.44;5257426;28;20028;-77
2022/10/17 01:44:16;;;;;;;11.07;8.70;;;;;;;15.72;100.00;101445.28;5256784;28;20032;-78
2022/10/17 01:46:58;;;;;;;9.60;8.70;;;;;;;15.74;100.00;101442.50;5256461;28;20960;-78
2022/10/17 01:49:31;;;;;;;10.13;9.13;;;;;;;15.65;100.00;101446.88;5255574;28;20045;-76
2022/10/17 01:52:08;;;;;;;9.70;8.80;;;;;;;15.76;100.00;101446.66;5257017;28;20032;-78
2022/10/17 01:55:09;;;;;;;11.00;9.30;;;;;;;15.93;100.00;101439.72;5257203;28;20477;-77
2022/10/17 01:57:45;;;;;;;9.75;8.25;;;;;;;15.80;100.00;101449.84;5250935;28;20079;-77
2022/10/17 02:00:21;;;;;;;9.38;8.48;;;;;;;15.78;100.00;101447.31;5256194;28;20021;-76
2022/10/17 02:03:03;;;;;;;10.85;8.57;;;;;;;15.90;100.00;101440.00;5255377;28;20098;-78
2022/10/17 02:05:38;;;;;;;9.80;7.85;;;;;;;15.89;100.00;101443.63;5255164;28;20051;-77
2022/10/17 02:08:10;;;;;;;10.02;8.25;;;;;;;15.86;100.00;101429.88;5256073;28;20029;-77
2022/10/17 02:11:09;;;;;;;8.90;8.13;;;;;;;16.07;100.00;101421.69;5256740;28;20051;-78
2022/10/17 02:14:18;;;;;;;11.50;9.07;;;;;;;16.10;100.00;101424.00;5257261;28;20019;-77
2022/10/17 02:17:06;;;;;;;10.05;8.57;;;;;;;16.05;100.00;101421.81;5256097;28;20037;-77
2022/10/17 02:19:57;;;;;;;9.82;7.90;;;;;;;15.97;100.00;101419.94;5256687;28;20381;-78
2022/10/17 02:22:43;;;;;;;10.00;8.00;;;;;;;15.93;100.00;101421.22;5238572;28;20059;-76
2022/10/17 02:25:50;;;;;;;12.32;7.85;;;;;;;16.03;100.00;101427.25;5256240;28;20469;-78
2022/10/17 02:28:48;;;;;;;9.15;8.25;;;;;;;16.04;100.00;101422.81;5255494;28;20389;-78
2022/10/17 02:31:24;;;;;;;10.82;7.90;;;;;;;15.89;100.00;101424.31;5256089;28;20374;-76
2022/10/17 02:34:01;;;;;;;9.95;8.23;;;;;;;15.97;100.00;101422.56;5257254;28;20025;-78
2022/10/17 02:36:41;;;;;;;11.48;8.77;;;;;;;16.05;100.00;101429.75;5268525;23;20167;-72
2022/10/17 02:39:14;;;;;;;11.93;8.85;;;;;;;15.92;100.00;101431.94;5253574;28;20304;-72
2022/10/17 02:41:48;;;;;;;11.73;8.98;;;;;;;15.97;100.00;101433.13;5254829;28;20037;-71
2022/10/17 02:44:22;;;;;;;9.05;8.13;;;;;;;15.99;100.00;101430.38;5254499;28;20618;-71
2022/10/17 02:47:02;;;;;;;10.27;8.20;;;;;;;16.05;100.00;101427.09;5255321;28;20021;-71
2022/10/17 02:49:39;;;;;;;9.18;8.13;;;;;;;16.01;100.00;101431.03;5251839;28;20025;-71
2022/10/17 02:52:22;;;;;;;9.57;8.00;;;;;;;15.96;100.00;101425.38;5249853;28;20513;-72
2022/10/17 02:54:58;;;;;;;11.98;8.35;;;;;;;15.97;100.00;101425.22;5252262;28;20514;-72
2022/10/17 02:57:36;;;;;;;10.02;7.97;;;;;;;16.02;100.00;101422.97;5244876;28;20057;-71
2022/10/17 03:00:13;;;;;;;9.07;8.10;;;;;;;16.02;100.00;101422.97;5253058;28;20024;-71
2022/10/17 03:02:47;;;;;;;11.35;8.40;;;;;;;15.96;100.00;101428.00;5251899;28;20029;-71
2022/10/17 03:05:21;;;;;;;9.60;8.07;;;;;;;15.97;100.00;101424.38;5251225;28;20025;-71
2022/10/17 03:07:53;;;;;;;9.55;7.60;;;;;;;15.95;100.00;101426.38;5248739;28;20025;-71
2022/10/17 03:10:24;;;;;;;10.40;7.88;;;;;;;15.95;100.00;101423.72;5250273;28;20034;-71
2022/10/17 03:12:55;;;;;;;8.02;7.22;;;;;;;16.00;100.00;101418.81;5248420;28;20047;-71
2022/10/17 03:15:26;;;;;;;9.00;7.80;;;;;;;16.04;100.00;101420.16;5245715;28;20033;-71
2022/10/17 03:17:58;;;;;;;10.23;7.60;;;;;;;16.09;100.00;101424.97;5248281;28;20193;-72
2022/10/17 03:20:29;;;;;;;9.60;7.95;;;;;;;16.03;100.00;101418.50;5249289;28;20500;-71
2022/10/17 03:23:00;;;;;;;8.75;7.85;;;;;;;16.03;100.00;101415.84;5253086;28;20515;-71
2022/10/17 03:25:32;;;;;;;12.02;7.40;;;;;;;16.05;100.00;101427.09;5251011;28;20028;-71
2022/10/17 03:28:04;;;;;;;9.98;7.80;;;;;;;16.06;100.00;101426.09;5251818;28;20026;-71
2022/10/17 03:30:37;;;;;;;10.02;7.55;;;;;;;16.05;100.00;101421.81;5247255;28;20394;-71
2022/10/17 03:33:08;;;;;;;;;;;;;;;16.59;100.00;101429.66;5249937;28;20515;-72
2022/10/17 03:35:40;;;;;;;8.60;7.20;;;;;;;16.07;100.00;101424.31;5250398;28;19921;-72
2022/10/17 03:38:11;;;;;;;9.82;8.05;;;;;;;16.03;100.00;101421.16;5249368;28;20061;-71
2022/10/17 03:40:42;;;;;;;9.60;7.75;;;;;;;16.03;100.00;101421.97;5251027;28;20061;-71
2022/10/17 03:43:13;;;;;;;8.65;7.38;;;;;;;16.02;100.00;101422.97;5250360;28;20025;-71
2022/10/17 03:45:45;;;;;;;12.02;8.02;;;;;;;16.08;100.00;101421.50;5252311;28;20028;-71
2022/10/17 03:48:16;;;;;;;8.80;7.90;;;;;;;16.08;100.00;101408.28;5250068;28;20472;-72
2022/10/17 03:50:47;;;;;;;10.13;8.10;;;;;;;16.11;100.00;101405.34;5252172;28;20025;-72
2022/10/17 03:53:19;;;;;;;10.85;7.20;;;;;;;16.09;100.00;101409.94;5250446;28;20025;-71
2022/10/17 03:55:50;;;;;;;7.80;7.00;;;;;;;16.06;100.00;101407.59;5250210;28;20017;-71
2022/10/17 03:58:21;;;;;;;9.77;7.47;;;;;;;16.07;100.00;101414.56;5248781;28;20457;-71
2022/10/17 04:00:52;;;;;;;8.98;8.07;;;;;;;16.13;100.00;101426.34;5246637;28;20385;-71
2022/10/17 04:03:24;;;;;;;10.38;7.15;;;;;;;16.12;100.00;101420.22;5248419;28;20500;-71
2022/10/17 04:05:59;;;;;;;10.73;7.82;;;;;;;16.19;100.00;101431.03;5244797;28;20108;-72
2022/10/17 04:08:30;;;;;;;8.60;7.28;;;;;;;16.12;100.00;101428.16;5230949;28;20017;-71
2022/10/17 04:11:04;;;;;;;10.05;7.53;;;;;;;16.18;100.00;101438.13;5253305;28;20027;-71
2022/10/17 04:13:36;;;;;;;11.40;7.80;;;;;;;16.18;100.00;101432.03;5247015;28;20067;-71
2022/10/17 04:16:11;;;;;;;11.90;8.07;;;;;;;16.24;100.00;101436.69;5249615;28;20037;-71
2022/10/17 04:18:43;;;;;;;13.27;7.80;;;;;;;16.18;100.00;101438.13;5249983;28;20023;-71
2022/10/17 04:21:15;;;;;;;11.55;7.57;;;;;;;16.20;100.00;101436.16;5247768;28;20045;-71
2022/10/17 04:23:46;;;;;;;11.73;7.78;;;;;;;16.22;100.00;101433.38;5250107;28;20096;-71
2022/10/17 04:26:17;;;;;;;12.07;7.88;;;;;;;16.26;100.00;101443.47;5250693;28;20120;-71
2022/10/17 04:28:49;;;;;;;12.27;7.28;;;;;;;16.28;100.00;101446.78;5249813;28;20073;-72
2022/10/17 04:31:21;;;;;;;8.07;7.28;;;;;;;16.22;100.00;101447.41;5251239;28;20041;-71
2022/10/17 04:33:52;;;;;;;8.88;6.90;;;;;;;16.24;100.00;101447.25;5251420;28;20024;-71
2022/10/17 04:36:24;;;;;;;9.77;6.47;;;;;;;16.28;100.00;101448.59;5250458;28;20401;-71
2022/10/17 04:38:55;;;;;;;9.32;7.53;;;;;;;16.24;100.00;101458.66;5244835;28;20436;-71
2022/10/17 04:41:26;;;;;;;9.77;6.95;;;;;;;16.25;100.00;101478.00;5249863;28;20517;-71
2022/10/17 04:43:57;;;;;;;8.32;6.90;;;;;;;16.24;100.00;101473.69;5249798;28;20025;-71
2022/10/17 04:46:29;;;;;;;8.55;7.18;;;;;;;16.27;100.00;101479.50;5247172;28;20461;-71
2022/10/17 04:49:00;;;;;;;8.95;7.20;;;;;;;16.26;100.00;101480.50;5243983;28;20437;-71
2022/10/17 04:51:31;;;;;;;9.88;6.85;;;;;;;16.25;100.00;101480.63;5246219;28;20096;-71
2022/10/17 04:54:03;;;;;;;9.07;6.90;;;;;;;16.30;100.00;101486.31;5246035;28;20032;-71
2022/10/17 04:56:34;;;;;;;8.02;6.70;;;;;;;16.24;100.00;101493.03;5248243;28;20279;-71
2022/10/17 04:59:05;;;;;;;12.55;6.60;;;;;;;16.26;100.00;101487.59;5248589;28;20039;-71
2022/10/17 05:01:36;;;;;;;6.90;6.13;;;;;;;16.27;100.00;101495.38;5249735;28;20049;-71
2022/10/17 05:04:08;;;;;;;9.80;6.00;;;;;;;16.27;100.00;101500.66;5249102;28;20083;-71
2022/10/17 05:06:39;;;;;;;11.38;6.32;;;;;;;16.29;100.00;101489.94;5249626;28;20017;-71
2022/10/17 05:09:10;;;;;;;10.85;5.80;;;;;;;16.35;100.00;101496.44;5249456;28;20413;-71
2022/10/17 05:11:42;;;;;;;20.35;6.60;;;;;;;16.36;100.00;101490.97;5245447;28;20029;-71
2022/10/17 05:14:14;;;;;;;7.10;6.25;;;;;;;16.39;100.00;101474.00;5250524;28;20504;-71
2022/10/17 05:16:45;;;;;;;8.32;6.25;;;;;;;16.54;100.00;101485.69;5246982;28;20021;-71
2022/10/17 05:19:17;;;;;;;6.93;5.82;;;;;;;16.53;100.00;101484.03;5247607;28;20025;-71
2022/10/17 05:21:48;;;;;;;8.93;6.38;;;;;;;16.48;100.00;101496.88;5247547;28;20058;-72
2022/10/17 05:24:19;;;;;;;9.68;6.70;;;;;;;16.55;100.00;101495.28;5245035;28;20148;-72
2022/10/17 05:26:51;;;;;;;7.47;5.90;;;;;;;16.60;100.00;101502.78;5243900;28;20021;-71
2022/10/17 05:29:22;;;;;;;8.13;6.18;;;;;;;16.66;100.00;101508.25;5244494;28;20343;-71
2022/10/17 05:31:53;;;;;;;8.32;6.32;;;;;;;16.68;100.00;101511.59;5246562;28;20021;-72
2022/10/17 05:34:24;;;;;;;7.55;6.43;;;;;;;16.70;100.00;101504.31;5242253;28;20017;-71
2022/10/17 05:36:56;;;;;;;8.65;6.20;;;;;;;16.72;100.00;101506.81;5247075;28;20029;-72
2022/10/17 05:39:27;;;;;;;8.43;6.22;;;;;;;16.73;100.00;101506.69;5246917;28;20029;-71
2022/10/17 05:41:59;;;;;;;8.48;6.68;;;;;;;16.75;100.00;101511.84;5225476;28;20032;-71
2022/10/17 05:44:30;;;;;;;9.00;5.82;;;;;;;16.75;100.00;101504.72;5245297;28;20082;-72
2022/10/17 05:47:01;;;;;;;9.23;6.07;;;;;;;16.85;100.00;101523.16;5244062;28;20056;-71
2022/10/17 05:49:33;;;;;;;8.60;5.78;;;;;;;16.91;100.00;101519.91;5227024;28;20024;-71
2022/10/17 05:52:05;;;;;;;7.60;5.78;;;;;;;16.88;100.00;101522.03;5245133;28;20029;-72
2022/10/17 05:54:36;;;;;;;9.50;6.50;;;;;;;16.89;100.00;101513.09;5245989;28;20754;-72
2022/10/17 05:57:07;;;;;;;6.15;5.55;;;;;;;16.94;100.00;101516.13;5244489;28;20078;-72
2022/10/17 05:59:38;;;;;;;11.63;5.35;;;;;;;16.98;100.00;101517.47;5225320;28;20025;-72
2022/10/17 06:02:13;;;;;;;9.70;5.88;;;;;;;16.98;100.00;101514.81;5244765;28;20025;-72
2022/10/17 06:04:45;;;;;;;9.40;6.43;;;;;;;16.93;100.00;101519.72;5242681;28;20031;-72
2022/10/17 06:07:16;;;;;;;7.68;5.40;;;;;;;17.00;100.00;101518.94;5235744;28;20568;-72
2022/10/17 06:09:47;;;;;;;7.45;5.40;;;;;;;17.05;100.00;101518.50;5243733;28;20109;-72
2022/10/17 06:12:19;;;;;;;6.93;5.57;;;;;;;17.06;100.00;101522.81;5247172;28;20032;-72
2022/10/17 06:14:50;;;;;;;8.15;5.40;;;;;;;17.06;100.00;101529.91;5247823;28;20116;-72
2022/10/17 06:17:21;;;;;;;7.85;5.63;;;;;;;16.98;100.00;101513.00;5247597;28;20030;-72
2022/10/17 06:19:53;;;;;;;9.43;5.40;;;;;;;17.03;100.00;101531.06;5246826;28;20029;-72
2022/10/17 06:22:24;;;;;;;8.13;5.75;;;;;;;16.99;100.00;101522.59;5249202;28;20395;-72
2022/10/17 06:24:55;;;;;;;7.43;5.38;;;;;;;17.06;100.00;101535.22;5250085;28;20439;-72
2022/10/17 06:27:26;;;;;;;6.90;5.70;;;;;;;17.12;100.00;101530.13;5247778;28;20072;-72
2022/10/17 06:29:58;;;;;;;8.57;5.78;;;;;;;17.10;100.00;101531.28;5248135;28;20021;-72
2022/10/17 06:32:29;;;;;;;8.60;5.63;;;;;;;17.12;100.00;101529.28;5230622;28;20021;-72
2022/10/17 06:35:00;;;;;;;8.75;5.90;;;;;;;17.11;100.00;101533.75;5246922;28;20276;-72
2022/10/17 06:37:32;;;;;;;10.70;5.78;;;;;;;17.15;100.00;101535.09;5249238;28;20183;-72
2022/10/17 06:40:06;;;;;;;8.77;5.67;;;;;;;17.08;100.00;101534.06;5242770;28;20026;-71
2022/10/17 06:42:38;;;;;;;6.20;5.47;;;;;;;17.13;100.00;101539.72;5244269;28;21581;-71
2022/10/17 06:45:09;;;;;;;6.65;5.43;;;;;;;17.21;100.00;101544.25;5249211;28;20033;-71
2022/10/17 06:47:41;;;;;;;7.43;5.57;;;;;;;17.23;100.00;101553.69;5248916;28;20026;-72
2022/10/17 06:50:12;;;;;;;6.65;5.53;;;;;;;17.27;100.00;101562.13;5249812;28;20128;-72
2022/10/17 06:52:43;;;;;;;9.40;5.95;;;;;;;17.27;100.00;101552.41;5248282;28;20512;-71
2022/10/17 06:55:15;;;;;;;6.25;4.90;;;;;;;17.33;100.00;101552.75;5247995;28;20485;-71
2022/10/17 06:57:46;;;;;;;7.47;5.13;;;;;;;17.35;100.00;101558.72;5246922;28;20029;-72
2022/10/17 07:00:17;;;;;;;6.07;5.47;;;;;;;17.43;100.00;101548.19;5248046;28;20026;-72
2022/10/17 07:02:48;;;;;;;6.85;5.63;;;;;;;17.49;100.00;101544.88;5247957;28;20017;-72
2022/10/17 07:05:20;;;;;;;7.28;5.40;;;;;;;17.49;100.00;101555.47;5249627;28;20025;-71
2022/10/17 07:07:51;;;;;;;8.40;5.28;;;;;;;17.49;100.00;101551.00;5247896;28;20109;-71
2022/10/17 07:10:22;;;;;;;6.80;5.18;;;;;;;17.57;100.00;101562.63;5247198;28;20447;-72
2022/10/17 07:12:54;;;;;;;6.30;4.88;;;;;;;17.60;100.00;101560.50;5249298;28;20441;-71
2022/10/17 07:15:26;;;;;;;7.38;5.55;;;;;;;17.58;100.00;101559.84;5245988;28;20554;-72
2022/10/17 07:17:57;;;;;;;7.47;5.25;;;;;;;17.58;100.00;101556.34;5238904;28;20025;-71
2022/10/17 07:20:29;;;;;;;9.35;5.00;;;;;;;17.59;100.00;101548.25;5237452;28;20409;-72
2022/10/17 07:23:00;;;;;;;8.55;4.88;;;;;;;17.73;100.00;101568.84;5238066;28;20399;-71
2022/10/17 07:25:31;;;;;;;6.97;4.93;;;;;;;17.69;100.00;101570.16;5245273;28;20036;-72
2022/10/17 07:28:03;;;;;;;9.40;4.90;;;;;;;17.62;100.00;101570.97;5246440;28;20475;-71
2022/10/17 07:30:34;;;;;;;8.05;5.18;;;;;;;17.67;100.00;101579.25;5248490;28;20048;-72
2022/10/17 07:33:06;;;;;;;6.55;5.40;;;;;;;17.63;100.00;101594.63;5240237;28;20033;-71
2022/10/17 07:35:39;;;;;;;8.02;5.28;;;;;;;17.66;100.00;101626.13;5242618;28;20022;-72
2022/10/17 07:38:11;;;;;;;10.50;5.07;;;;;;;17.62;100.00;101643.34;5246778;28;20049;-71
2022/10/17 07:40:42;;;;;;;8.13;5.28;;;;;;;17.65;100.00;101666.03;5242229;28;20021;-72
2022/10/17 07:43:13;;;;;;;7.63;5.15;;;;;;;17.69;100.00;101693.88;5248708;28;20040;-71
2022/10/17 07:45:44;;;;;;;5.82;4.68;;;;;;;17.69;100.00;101693.88;5247150;28;20057;-72
2022/10/17 07:48:16;;;;;;;5.93;4.78;;;;;;;17.71;100.00;101716.59;5247025;28;20373;-71
2022/10/17 07:50:47;;;;;;;13.50;5.32;;;;;;;17.71;100.00;101729.00;5244931;28;20108;-71
2022/10/17 07:53:19;;;;;;;11.18;5.20;;;;;;;17.65;100.00;101719.88;5248144;28;20469;-71
2022/10/17 07:55:50;;;;;;;8.82;5.22;;;;;;;17.62;100.00;101736.06;5246340;28;20108;-71
2022/10/17 07:58:21;;;;;;;10.45;5.20;;;;;;;17.59;100.00;101724.97;5246411;28;20032;-71
2022/10/17 08:00:53;;;;;;;7.72;5.30;;;;;;;17.67;100.00;101717.88;5246972;28;20026;-71
2022/10/17 08:03:24;;;;;;;7.38;5.13;;;;;;;17.61;100.00;101717.66;5243694;28;20032;-71
2022/10/17 08:05:59;;;;;;;15.85;6.53;;;;;;;17.70;100.00;101716.75;5242498;28;20029;-71
2022/10/17 08:08:31;;;;;;;10.50;6.25;;;;;;;17.57;100.00;101721.63;5245607;28;20048;-72
2022/10/17 08:11:06;;;;;;;11.68;6.45;;;;;;;17.55;100.00;101721.78;5239019;28;20017;-72
2022/10/17 08:13:39;;;;;;;8.88;6.05;;;;;;;17.50;100.00;101722.25;5241728;28;20072;-72
2022/10/17 08:16:12;;;;;;;9.45;5.95;;;;;;;17.63;100.00;101742.22;5244794;28;20052;-72
2022/10/17 08:18:43;;;;;;;9.27;5.78;;;;;;;17.55;100.00;101758.03;5243594;28;20496;-72
2022/10/17 08:21:14;;;;;;;8.15;5.90;;;;;;;17.50;100.00;101790.28;5244370;28;20082;-72
2022/10/17 08:23:46;;;;;;;7.88;6.68;;;;;;;17.62;100.00;101793.53;5244751;28;20028;-72
2022/10/17 08:26:18;;;;;;;8.60;6.63;;;;;;;17.58;100.00;101790.38;5246049;28;20041;-72
2022/10/17 08:28:50;;;;;;;10.55;6.40;;;;;;;17.60;100.00;101774.31;5241558;28;20377;-71
2022/10/17 08:31:21;;;;;;;7.40;6.20;;;;;;;17.54;100.00;101785.50;5241229;28;20572;-71
2022/10/17 08:33:53;;;;;;;6.85;5.28;;;;;;;17.47;100.00;101780.00;5244316;28;20021;-71
2022/10/17 08:36:24;;;;;;;8.90;6.07;;;;;;;17.59;100.00;101785.91;5264084;23;20064;-79
2022/10/17 08:38:55;;;;;;;11.43;6.25;;;;;;;17.62;100.00;101778.47;5234201;28;20060;-78
2022/10/17 08:41:37;;;;;;;7.40;5.90;;;;;;;17.62;100.00;101788.25;5239403;28;20034;-77
2022/10/17 08:44:32;;;;;;;7.82;5.70;;;;;;;17.61;100.00;101784.75;5244915;28;20053;-78
2022/10/17 08:47:11;;;;;;;11.10;5.93;;;;;;;17.69;100.00;101776.03;5213956;28;20100;-78
2022/10/17 08:49:50;;;;;;;8.05;5.93;;;;;;;17.60;100.00;101783.09;5240575;28;20112;-78
2022/10/17 08:52:34;;;;;;;10.25;6.53;;;;;;;17.63;100.00;101780.13;5234283;28;20017;-78
2022/10/17 08:55:14;;;;;;;7.53;5.82;;;;;;;17.63;100.00;101764.22;5243275;28;20032;-78
2022/10/17 08:57:47;;;;;;;7.55;6.15;;;;;;;17.59;100.00;101773.47;5243513;28;20028;-79
2022/10/17 09:00:20;;;;;;;8.88;5.90;;;;;;;17.58;100.00;101774.47;5235490;28;20029;-78
2022/10/17 09:02:54;;;;;;;;;;;;;;;18.13;100.00;101773.38;5243488;28;20029;-78
2022/10/17 09:05:46;;;;;;;14.35;6.80;;;;;;;17.65;100.00;101783.47;5240530;28;19920;-78
2022/10/17 09:08:31;;;;;;;7.93;6.40;;;;;;;17.59;100.00;101802.63;5241918;28;20053;-80
2022/10/17 09:11:16;;;;;;;8.88;6.28;;;;;;;17.67;100.00;101809.81;5244540;28;20513;-78
2022/10/17 09:14:16;;;;;;;9.35;6.72;;;;;;;17.71;100.00;101832.38;5241510;28;20021;-78
2022/10/17 09:17:06;;;;;;;7.95;6.32;;;;;;;17.79;100.00;101842.25;5243908;28;20029;-77
2022/10/17 09:20:15;;;;;;;9.60;6.60;;;;;;;17.76;100.00;101856.63;5242269;28;20466;-77
2022/10/17 09:23:04;;;;;;;13.70;7.70;;;;;;;17.69;100.00;101837.84;5240973;28;20104;-77
2022/10/17 09:25:55;;;;;;;7.53;6.75;;;;;;;17.70;100.00;101828.06;5242046;28;20023;-77
2022/10/17 09:28:32;;;;;;;9.80;7.28;;;;;;;17.55;100.00;101788.03;5243569;28;20037;-77
2022/10/17 09:31:18;;;;;;;10.00;6.22;;;;;;;17.52;100.00;101760.00;5242577;28;20032;-77
2022/10/17 09:33:51;;;;;;;7.70;6.03;;;;;;;17.54;100.00;101743.13;5244901;28;20115;-77
2022/10/17 09:36:33;;;;;;;8.18;6.60;;;;;;;17.73;100.00;101761.50;5242170;28;20028;-77
2022/10/17 09:39:12;;;;;;;12.75;6.55;;;;;;;17.71;100.00;101766.13;5244726;28;20417;-77
2022/10/17 09:41:49;;;;;;;12.80;6.60;;;;;;;17.72;100.00;101781.84;5244303;28;20072;-78
2022/10/17 09:44:38;;;;;;;8.30;7.13;;;;;;;17.74;100.00;101809.03;5245819;28;20037;-78
2022/10/17 09:47:27;;;;;;;8.23;7.28;;;;;;;17.65;100.00;101814.41;5225786;28;20044;-78
2022/10/17 09:49:58;;;;;;;7.97;6.82;;;;;;;17.63;100.00;101808.47;5248416;28;20030;-78
2022/10/17 09:52:38;;;;;;;8.27;6.43;;;;;;;17.74;100.00;101797.63;5247911;28;20466;-78
2022/10/17 09:55:17;;;;;;;8.43;6.82;;;;;;;17.75;100.00;101791.34;5247287;28;20037;-78
2022/10/17 09:57:58;;;;;;;8.95;6.85;;;;;;;17.82;100.00;101780.97;5247726;28;20036;-78
2022/10/17 10:00:33;;;;;;;9.05;7.35;;;;;;;17.74;100.00;101777.25;5247921;28;20037;-78
2022/10/17 10:03:16;;;;;;;9.02;6.80;;;;;;;17.94;100.00;101779.72;5246690;28;20029;-78
2022/10/17 10:06:03;;;;;;;8.32;6.68;;;;;;;17.92;100.00;101779.06;5249179;28;20052;-78
2022/10/17 10:08:48;;;;;;;8.38;7.10;;;;;;;17.86;100.00;101780.50;5247833;28;20056;-78
2022/10/17 10:11:46;;;;;;;8.50;6.90;;;;;;;18.12;100.00;101801.72;5246607;28;20029;-78
2022/10/17 10:14:32;;;;;;;8.60;6.60;;;;;;;18.01;100.00;101812.59;5242040;28;20053;-78
2022/10/17 10:17:24;;;;;;;8.48;6.07;;;;;;;17.89;100.00;101819.13;5247398;28;20411;-78
2022/10/17 10:19:55;;;;;;;8.25;6.53;;;;;;;17.88;100.00;101820.09;5248032;28;20400;-78
2022/10/17 10:22:27;;;;;;;10.13;5.85;;;;;;;17.91;100.00;101827.75;5249487;28;20096;-79
2022/10/17 10:25:10;;;;;;;6.97;5.97;;;;;;;18.08;100.00;101829.56;5246518;28;20099;-79
2022/10/17 10:27:43;;;;;;;10.18;6.30;;;;;;;17.99;100.00;101849.03;5245361;28;20051;-78
2022/10/17 10:30:24;;;;;;;7.70;5.60;;;;;;;17.96;100.00;101844.06;5244941;28;20045;-78
2022/10/17 10:32:58;;;;;;;7.95;5.72;;;;;;;17.98;100.00;101853.50;5248016;28;20378;-78
2022/10/17 10:35:35;;;;;;;7.97;5.68;;;;;;;18.07;100.00;101854.41;5244687;28;20530;-79
2022/10/17 10:38:14;;;;;;;9.60;5.57;;;;;;;18.11;100.00;101869.03;5246209;28;20041;-78
2022/10/17 10:40:49;;;;;;;6.85;5.45;;;;;;;18.11;100.00;101874.31;5248155;28;20517;-78
2022/10/17 10:43:39;;;;;;;10.13;5.45;;;;;;;18.17;100.00;101884.31;5247897;28;20029;-78
2022/10/17 10:46:29;;;;;;;6.22;5.13;;;;;;;18.26;100.00;101900.28;5247572;28;20065;-78
2022/10/17 10:49:02;;;;;;;7.65;5.53;;;;;;;18.05;100.00;101909.41;5247477;28;20028;-79
2022/10/17 10:51:47;;;;;;;6.20;5.03;;;;;;;18.20;100.00;101909.69;5243817;28;20052;-78
2022/10/17 10:54:25;;;;;;;8.80;5.47;;;;;;;18.11;100.00;101913.28;5246415;28;20400;-78
2022/10/17 10:56:59;;;;;;;8.20;4.97;;;;;;;18.00;100.00;101911.69;5244971;28;20083;-78
2022/10/17 10:59:46;;;;;;;9.52;4.55;;;;;;;18.18;100.00;101909.84;5246563;28;20453;-79
2022/10/17 11:02:37;;;;;;;7.30;4.90;;;;;;;18.28;100.00;101907.09;5247333;28;20029;-78
2022/10/17 11:05:29;;;;;;;7.35;4.85;;;;;;;18.30;100.00;101904.31;5245853;28;20083;-78
2022/10/17 11:08:08;;;;;;;6.95;5.10;;;;;;;18.21;100.00;101909.53;5245560;28;20025;-78
2022/10/17 11:11:00;;;;;;;7.47;5.05;;;;;;;18.28;100.00;101914.22;5247125;28;20017;-78
2022/10/17 11:13:39;;;;;;;7.45;4.95;;;;;;;18.26;100.00;101913.53;5247268;28;20032;-79
2022/10/17 11:16:29;;;;;;;13.88;5.28;;;;;;;18.35;100.00;101923.25;5247005;28;20106;-78
2022/10/17 11:19:15;;;;;;;8.85;5.25;;;;;;;18.27;100.00;101936.44;5247660;28;20044;-78
2022/10/17 11:22:13;;;;;;;10.60;5.38;;;;;;;18.41;100.00;101935.88;5247119;28;20022;-78
2022/10/17 11:25:11;;;;;;;6.65;5.28;;;;;;;18.42;100.00;101940.22;5246220;28;20033;-78
2022/10/17 11:27:42;;;;;;;6.55;5.35;;;;;;;18.10;100.00;101928.34;5240138;28;20544;-78
2022/10/17 11:30:15;;;;;;;8.15;5.65;;;;;;;18.13;100.00;101935.16;5246299;28;20032;-78
2022/10/17 11:32:52;;;;;;;7.68;5.75;;;;;;;18.24;100.00;101953.50;5246080;28;20025;-78
2022/10/17 11:35:34;;;;;;;6.88;5.25;;;;;;;18.30;100.00;101957.38;5245899;28;20021;-79
2022/10/17 11:38:24;;;;;;;8.35;5.53;;;;;;;18.39;100.00;101954.59;5236792;28;20446;-78
2022/10/17 11:40:58;;;;;;;9.57;5.47;;;;;;;18.24;100.00;101953.50;5245247;28;20502;-78
2022/10/17 11:43:33;;;;;;;8.10;6.07;;;;;;;18.25;100.00;101960.44;5245707;28;20036;-78
2022/10/17 11:46:13;;;;;;;8.50;5.68;;;;;;;18.34;100.00;101964.84;5246253;28;20075;-78
2022/10/17 11:48:58;;;;;;;7.15;6.13;;;;;;;18.38;100.00;101968.88;5244433;28;20087;-78
2022/10/17 11:51:35;;;;;;;8.57;6.15;;;;;;;18.30;100.00;101962.66;5246308;28;20037;-79
2022/10/17 11:54:16;;;;;;;7.50;6.43;;;;;;;18.35;100.00;101971.00;5246382;28;20158;-78
2022/10/17 11:57:15;;;;;;;8.82;6.32;;;;;;;18.53;100.00;101977.09;5245777;28;20029;-78
2022/10/17 11:59:59;;;;;;;7.15;6.45;;;;;;;18.39;100.00;101969.69;5235371;28;20033;-78